createdAt,value
2017-12-16T00:01:12.927Z,11.75
2017-12-16T00:03:39.362Z,9.18
2017-12-16T00:06:05.797Z,10.65
2017-12-16T00:08:32.259Z,15.32
2017-12-16T00:10:58.667Z,10.82
2017-12-16T00:13:25.856Z,10.77
2017-12-16T00:15:52.306Z,13.55
2017-12-16T00:18:18.727Z,11.20
2017-12-16T00:20:45.165Z,10.70
2017-12-16T00:23:11.623Z,10.15
2017-12-16T00:25:38.028Z,13.02
2017-12-16T00:28:04.520Z,11.60
2017-12-16T00:30:31.826Z,11.63
2017-12-16T00:32:58.274Z,13.15
2017-12-16T00:35:24.674Z,10.05
2017-12-16T00:37:51.809Z,10.77
2017-12-16T00:40:18.254Z,15.48
2017-12-16T00:42:44.855Z,14.65
2017-12-16T00:45:11.297Z,9.68
2017-12-16T00:47:37.688Z,9.90
2017-12-16T00:50:04.919Z,11.73
2017-12-16T00:52:31.390Z,10.02
2017-12-16T00:54:58.676Z,12.43
2017-12-16T00:57:25.096Z,15.75
2017-12-16T00:59:52.246Z,13.30
2017-12-16T01:02:19.434Z,13.15
2017-12-16T01:04:45.852Z,12.60
2017-12-16T01:07:12.214Z,11.18
2017-12-16T01:09:39.960Z,11.75
2017-12-16T01:12:06.409Z,12.43
2017-12-16T01:14:32.840Z,12.68
2017-12-16T01:16:59.240Z,9.73
2017-12-16T01:19:25.691Z,11.45
2017-12-16T01:21:52.902Z,10.57
2017-12-16T01:24:19.330Z,10.55
2017-12-16T01:26:45.775Z,11.68
2017-12-16T01:29:12.285Z,10.65
2017-12-16T01:31:38.694Z,11.40
2017-12-16T01:34:17.947Z,11.82
2017-12-16T01:36:56.691Z,10.07
2017-12-16T01:39:23.148Z,13.05
2017-12-16T01:41:49.558Z,9.32
2017-12-16T01:44:16.029Z,11.30
2017-12-16T01:46:42.594Z,14.32
2017-12-16T01:49:09.024Z,13.38
2017-12-16T01:51:35.439Z,12.13
2017-12-16T01:54:01.878Z,10.88
2017-12-16T01:56:28.332Z,11.10
2017-12-16T01:58:54.730Z,11.27
2017-12-16T02:01:21.204Z,9.77
2017-12-16T02:03:47.622Z,11.32
2017-12-16T02:06:14.054Z,12.30
2017-12-16T02:08:40.520Z,10.30
2017-12-16T02:11:06.939Z,10.52
2017-12-16T02:13:33.719Z,11.50
2017-12-16T02:16:00.282Z,13.25
2017-12-16T02:18:27.447Z,16.75
2017-12-16T02:20:54.607Z,11.88
2017-12-16T02:23:21.020Z,13.02
2017-12-16T02:25:47.437Z,11.63
2017-12-16T02:28:14.058Z,12.32
2017-12-16T02:30:40.715Z,10.70
2017-12-16T02:33:07.123Z,12.85
2017-12-16T02:35:33.556Z,10.48
2017-12-16T02:38:00.062Z,11.25
2017-12-16T02:40:26.545Z,8.85
2017-12-16T02:42:52.926Z,10.98
2017-12-16T02:45:19.370Z,10.38
2017-12-16T02:47:45.812Z,10.90
2017-12-16T02:50:12.975Z,9.38
2017-12-16T02:52:40.157Z,10.95
2017-12-16T02:55:06.552Z,10.52
2017-12-16T02:57:32.995Z,10.80
2017-12-16T02:59:59.420Z,14.77
2017-12-16T03:02:25.926Z,14.40
2017-12-16T03:04:52.361Z,10.20
2017-12-16T03:07:18.750Z,10.50
2017-12-16T03:09:45.160Z,9.50
2017-12-16T03:12:11.691Z,11.32
2017-12-16T03:17:30.838Z,13.88
2017-12-16T03:19:57.252Z,14.35
2017-12-16T03:22:24.472Z,11.27
2017-12-16T03:24:50.876Z,11.02
2017-12-16T03:27:19.106Z,12.02
2017-12-16T03:29:45.519Z,10.73
2017-12-16T03:32:11.918Z,10.48
2017-12-16T03:34:39.083Z,9.52
2017-12-16T03:37:05.466Z,7.93
2017-12-16T03:39:31.894Z,13.05
2017-12-16T03:41:58.270Z,13.57
2017-12-16T03:44:25.419Z,10.07
2017-12-16T03:46:52.022Z,9.90
2017-12-16T03:49:18.428Z,9.43
2017-12-16T03:51:44.859Z,8.98
2017-12-16T03:54:12.002Z,7.80
2017-12-16T03:56:39.182Z,6.53
2017-12-16T03:59:05.587Z,5.95
2017-12-16T04:01:32.778Z,6.72
2017-12-16T04:03:59.215Z,6.60
2017-12-16T04:06:25.663Z,8.93
2017-12-16T04:08:52.096Z,8.85
2017-12-16T04:11:18.575Z,6.68
2017-12-16T04:13:44.979Z,5.97
2017-12-16T04:16:11.419Z,8.45
2017-12-16T04:18:37.878Z,8.95
2017-12-16T04:23:59.729Z,10.57
2017-12-16T04:26:26.193Z,8.98
2017-12-16T04:28:53.398Z,9.27
2017-12-16T04:31:19.828Z,7.97
2017-12-16T04:33:46.210Z,8.32
2017-12-16T04:36:12.642Z,10.18
2017-12-16T04:38:39.116Z,11.98
2017-12-16T04:41:06.439Z,10.25
2017-12-16T04:43:32.944Z,9.80
2017-12-16T04:45:59.390Z,10.02
2017-12-16T04:48:25.773Z,10.85
2017-12-16T04:50:52.211Z,8.57
2017-12-16T04:53:18.668Z,10.02
2017-12-16T04:55:45.846Z,10.00
2017-12-16T04:58:12.412Z,15.45
2017-12-16T05:00:38.831Z,8.80
2017-12-16T05:03:05.287Z,7.60
2017-12-16T05:05:31.704Z,8.02
2017-12-16T05:07:58.098Z,10.27
2017-12-16T05:10:24.513Z,11.73
2017-12-16T05:12:50.987Z,8.77
2017-12-16T05:15:18.135Z,11.10
2017-12-16T05:17:45.326Z,6.65
2017-12-16T05:20:11.760Z,11.02
2017-12-16T05:22:38.214Z,11.57
2017-12-16T05:25:04.675Z,10.27
2017-12-16T05:27:31.110Z,14.38
2017-12-16T05:29:57.586Z,11.35
2017-12-16T05:32:24.838Z,9.63
2017-12-16T05:37:44.669Z,11.40
2017-12-16T05:40:11.099Z,8.63
2017-12-16T05:42:37.538Z,12.82
2017-12-16T05:45:03.956Z,9.52
2017-12-16T05:47:31.146Z,12.15
2017-12-16T05:49:57.594Z,8.55
2017-12-16T05:52:23.990Z,7.78
2017-12-16T05:54:51.181Z,9.95
2017-12-16T05:57:17.696Z,12.57
2017-12-16T05:59:45.002Z,9.20
2017-12-16T06:02:11.431Z,8.82
2017-12-16T06:04:37.940Z,8.10
2017-12-16T06:07:04.309Z,12.88
2017-12-16T06:09:30.728Z,6.78
2017-12-16T06:11:57.159Z,9.30
2017-12-16T06:14:23.750Z,14.18
2017-12-16T06:16:50.183Z,6.43
2017-12-16T06:19:16.793Z,9.98
2017-12-16T06:21:43.400Z,12.75
2017-12-16T06:24:10.580Z,15.10
2017-12-16T06:26:37.202Z,8.88
2017-12-16T06:29:04.343Z,8.65
2017-12-16T06:31:30.777Z,9.43
2017-12-16T06:33:57.210Z,9.93
2017-12-16T06:36:23.770Z,8.32
2017-12-16T06:38:50.945Z,9.85
2017-12-16T06:41:17.356Z,8.65
2017-12-16T06:43:43.792Z,7.45
2017-12-16T06:46:10.962Z,11.05
2017-12-16T06:48:38.097Z,9.68
2017-12-16T06:51:05.270Z,11.85
2017-12-16T06:53:32.427Z,11.52
2017-12-16T06:55:59.606Z,13.95
2017-12-16T06:58:26.041Z,8.57
2017-12-16T07:00:59.574Z,10.38
2017-12-16T07:03:25.972Z,16.05
2017-12-16T07:05:52.537Z,9.00
2017-12-16T07:11:14.237Z,16.48
2017-12-16T07:13:41.413Z,8.65
2017-12-16T07:16:07.843Z,9.90
2017-12-16T07:18:34.380Z,7.97
2017-12-16T07:21:00.927Z,8.00
2017-12-16T07:23:27.340Z,9.20
2017-12-16T07:25:54.487Z,8.20
2017-12-16T07:28:21.682Z,5.40
2017-12-16T07:30:48.178Z,9.32
2017-12-16T07:33:14.607Z,12.10
2017-12-16T07:35:41.036Z,10.10
2017-12-16T07:38:07.498Z,11.00
2017-12-16T07:40:33.906Z,12.52
2017-12-16T07:43:00.517Z,11.48
2017-12-16T07:45:26.947Z,6.40
2017-12-16T07:47:53.334Z,10.82
2017-12-16T07:50:19.855Z,10.10
2017-12-16T07:52:46.343Z,7.10
2017-12-16T07:55:12.819Z,6.53
2017-12-16T07:57:39.353Z,6.07
2017-12-16T08:00:05.921Z,9.85
2017-12-16T08:02:32.348Z,11.35
2017-12-16T08:04:58.746Z,13.10
2017-12-16T08:07:25.940Z,10.90
2017-12-16T08:09:52.535Z,12.48
2017-12-16T08:12:19.718Z,14.73
2017-12-16T08:14:46.208Z,15.73
2017-12-16T08:17:12.607Z,19.23
2017-12-16T08:19:39.081Z,13.70
2017-12-16T08:22:05.634Z,22.02
2017-12-16T08:24:32.103Z,20.12
2017-12-16T08:26:59.262Z,20.88
2017-12-16T08:29:26.467Z,18.70
2017-12-16T08:31:52.926Z,18.17
2017-12-16T08:34:19.402Z,16.75
2017-12-16T08:36:45.876Z,16.80
2017-12-16T08:39:12.310Z,16.80
2017-12-16T08:41:38.808Z,17.50
2017-12-16T08:44:05.284Z,17.30
2017-12-16T08:46:31.703Z,17.85
2017-12-16T08:48:58.135Z,11.98
2017-12-16T08:51:24.579Z,14.90
2017-12-16T08:53:51.013Z,15.27
2017-12-16T08:56:17.558Z,10.52
2017-12-16T08:58:43.999Z,11.70
2017-12-16T09:01:10.443Z,16.00
2017-12-16T09:03:36.935Z,20.33
2017-12-16T09:06:03.351Z,13.32
2017-12-16T09:08:29.778Z,14.02
2017-12-16T09:10:56.199Z,15.10
2017-12-16T09:13:22.615Z,25.48
2017-12-16T09:15:49.811Z,17.35
2017-12-16T09:18:16.276Z,24.42
2017-12-16T09:20:43.430Z,14.30
2017-12-16T09:23:09.850Z,21.00
2017-12-16T09:25:36.286Z,8.88
2017-12-16T09:28:02.841Z,19.27
2017-12-16T09:30:30.572Z,16.35
2017-12-16T09:32:56.973Z,13.50
2017-12-16T09:35:24.176Z,18.92
2017-12-16T09:37:50.766Z,16.42
2017-12-16T09:40:17.990Z,9.07
2017-12-16T09:42:44.419Z,15.52
2017-12-16T09:45:10.879Z,15.70
2017-12-16T09:47:38.094Z,20.08
2017-12-16T09:50:04.522Z,16.92
2017-12-16T09:52:30.990Z,17.15
2017-12-16T09:54:57.489Z,21.50
2017-12-16T09:57:23.962Z,18.10
2017-12-16T09:59:50.414Z,16.30
2017-12-16T10:02:16.823Z,20.10
2017-12-16T10:04:43.297Z,23.20
2017-12-16T10:07:09.714Z,19.92
2017-12-16T10:09:36.166Z,19.67
2017-12-16T10:12:02.706Z,18.92
2017-12-16T10:14:29.163Z,18.20
2017-12-16T10:16:55.599Z,18.92
2017-12-16T10:19:22.034Z,17.73
2017-12-16T10:21:48.494Z,13.80
2017-12-16T10:24:15.839Z,14.25
2017-12-16T10:26:42.250Z,15.85
2017-12-16T10:29:08.706Z,13.38
2017-12-16T10:31:35.227Z,13.35
2017-12-16T10:34:01.663Z,15.88
2017-12-16T10:36:28.092Z,13.68
2017-12-16T10:38:54.557Z,10.82
2017-12-16T10:41:21.003Z,13.20
2017-12-16T10:43:47.461Z,11.20
2017-12-16T10:46:14.046Z,13.40
2017-12-16T10:48:40.612Z,18.77
2017-12-16T10:51:07.074Z,15.45
2017-12-16T10:53:33.734Z,12.25
2017-12-16T10:56:00.894Z,8.63
2017-12-16T10:58:28.102Z,12.80
2017-12-16T11:00:54.865Z,14.50
2017-12-16T11:03:22.362Z,7.65
2017-12-16T11:05:49.593Z,7.72
2017-12-16T11:08:16.096Z,9.80
2017-12-16T11:10:43.687Z,14.60
2017-12-16T11:13:10.225Z,7.80
2017-12-16T11:15:36.709Z,14.20
2017-12-16T11:18:04.154Z,12.00
2017-12-16T11:20:30.595Z,17.50
2017-12-16T11:22:57.215Z,14.30
2017-12-16T11:25:30.778Z,18.65
2017-12-16T11:27:57.254Z,16.65
2017-12-16T11:30:23.898Z,13.27
2017-12-16T11:32:50.534Z,15.00
2017-12-16T11:35:17.014Z,15.77
2017-12-16T11:37:44.355Z,11.90
2017-12-16T11:40:11.597Z,14.18
2017-12-16T11:42:38.099Z,14.50
2017-12-16T11:45:04.591Z,14.93
2017-12-16T11:47:31.020Z,15.73
2017-12-16T11:49:57.585Z,10.30
2017-12-16T11:52:24.087Z,9.15
2017-12-16T11:54:50.539Z,12.07
2017-12-16T11:57:17.064Z,10.73
2017-12-16T11:59:43.559Z,13.35
2017-12-16T12:02:10.811Z,13.07
2017-12-16T12:04:38.100Z,11.98
2017-12-16T12:07:04.527Z,8.82
2017-12-16T12:09:30.967Z,11.48
2017-12-16T12:11:57.422Z,10.27
2017-12-16T12:14:23.841Z,10.48
2017-12-16T12:16:50.323Z,13.02
2017-12-16T12:19:16.755Z,14.90
2017-12-16T12:21:43.223Z,14.75
2017-12-16T12:24:09.726Z,16.45
2017-12-16T12:32:23.409Z,21.92
2017-12-16T12:34:50.525Z,15.20
2017-12-16T12:37:18.360Z,12.60
2017-12-16T12:39:46.263Z,9.40
2017-12-16T12:42:13.267Z,11.52
2017-12-16T12:44:40.763Z,10.40
2017-12-16T12:47:08.175Z,12.48
2017-12-16T12:49:35.049Z,11.30
2017-12-16T12:52:03.699Z,11.95
2017-12-16T12:54:30.770Z,12.10
2017-12-16T12:56:57.211Z,7.32
2017-12-16T12:59:24.497Z,10.75
2017-12-16T13:01:51.303Z,9.80
2017-12-16T13:04:18.446Z,11.45
2017-12-16T13:06:45.215Z,15.63
2017-12-16T13:09:15.275Z,13.50
2017-12-16T13:11:42.096Z,6.45
2017-12-16T13:14:09.018Z,10.00
2017-12-16T13:16:35.543Z,8.45
2017-12-16T13:19:02.453Z,11.77
2017-12-16T13:21:30.295Z,11.73
2017-12-16T13:23:56.796Z,11.82
2017-12-16T13:26:24.108Z,17.95
2017-12-16T13:28:51.934Z,17.55
2017-12-16T13:31:18.874Z,15.75
2017-12-16T13:33:45.540Z,9.60
2017-12-16T13:36:12.176Z,19.35
2017-12-16T13:38:40.090Z,7.90
2017-12-16T13:41:07.388Z,16.12
2017-12-16T13:43:34.267Z,15.43
2017-12-16T13:46:01.256Z,13.18
2017-12-16T13:48:28.223Z,17.08
2017-12-16T13:50:55.333Z,12.80
2017-12-16T13:53:22.189Z,15.18
2017-12-16T13:55:49.236Z,11.02
2017-12-16T13:58:16.330Z,20.33
2017-12-16T14:00:43.506Z,22.45
2017-12-16T14:03:10.458Z,18.65
2017-12-16T14:05:37.719Z,16.02
2017-12-16T14:08:04.672Z,8.75
2017-12-16T14:10:31.699Z,11.45
2017-12-16T14:12:58.735Z,15.93
2017-12-16T14:15:26.360Z,20.77
2017-12-16T14:17:53.414Z,21.05
2017-12-16T14:20:20.419Z,8.70
2017-12-16T14:22:46.994Z,9.25
2017-12-16T14:25:13.477Z,15.93
2017-12-16T14:27:41.064Z,10.55
2017-12-16T14:30:08.291Z,11.10
2017-12-16T14:32:35.441Z,17.58
2017-12-16T14:35:02.876Z,17.77
2017-12-16T14:37:30.113Z,21.52
2017-12-16T14:39:56.847Z,16.52
2017-12-16T14:42:23.956Z,19.73
2017-12-16T14:44:50.999Z,10.15
2017-12-16T14:47:17.521Z,19.98
2017-12-16T14:49:44.690Z,14.35
2017-12-16T14:52:11.757Z,22.55
2017-12-16T14:54:38.976Z,21.85
2017-12-16T14:57:06.139Z,25.90
2017-12-16T14:59:33.119Z,15.00
2017-12-16T15:02:00.251Z,23.15
2017-12-16T15:04:26.791Z,23.55
2017-12-16T15:06:53.238Z,29.52
2017-12-16T15:09:20.257Z,24.55
2017-12-16T15:11:46.975Z,24.15
2017-12-16T15:14:13.911Z,37.65
2017-12-16T15:16:41.655Z,36.78
2017-12-16T15:19:08.384Z,27.90
2017-12-16T15:21:35.188Z,35.28
2017-12-16T15:24:02.211Z,27.85
2017-12-16T15:26:30.194Z,20.77
2017-12-16T15:28:57.326Z,26.52
2017-12-16T15:31:23.838Z,33.15
2017-12-16T15:33:50.577Z,37.67
2017-12-16T15:36:17.583Z,19.20
2017-12-16T15:41:10.249Z,25.83
2017-12-16T15:43:37.672Z,33.40
2017-12-16T15:46:06.617Z,23.48
2017-12-16T15:48:34.230Z,34.28
2017-12-16T15:51:01.298Z,30.08
2017-12-16T15:53:28.644Z,17.60
2017-12-16T15:55:55.222Z,23.52
2017-12-16T15:58:23.157Z,34.50
2017-12-16T16:00:49.615Z,29.10
2017-12-16T16:03:16.862Z,35.50
2017-12-16T16:05:44.405Z,22.83
2017-12-16T16:08:11.471Z,27.67
2017-12-16T16:10:38.458Z,26.83
2017-12-16T16:13:05.131Z,23.58
2017-12-16T16:15:39.809Z,26.87
2017-12-16T16:18:07.827Z,27.80
2017-12-16T16:20:35.339Z,30.58
2017-12-16T16:23:02.343Z,39.25
2017-12-16T16:25:28.932Z,32.28
2017-12-16T16:27:55.789Z,24.23
2017-12-16T16:30:22.628Z,17.17
2017-12-16T16:32:50.162Z,26.37
2017-12-16T16:35:18.474Z,25.35
2017-12-16T16:37:45.675Z,27.62
2017-12-16T16:40:14.786Z,27.02
2017-12-16T16:42:41.468Z,26.77
2017-12-16T16:45:08.230Z,37.92
2017-12-16T16:47:35.257Z,29.60
2017-12-16T16:50:02.216Z,27.98
2017-12-16T16:52:29.060Z,29.10
2017-12-16T16:55:04.729Z,26.58
2017-12-16T16:57:31.957Z,33.63
2017-12-16T16:59:58.817Z,34.83
2017-12-16T17:02:26.594Z,34.25
2017-12-16T17:04:53.771Z,36.83
2017-12-16T17:07:20.426Z,32.45
2017-12-16T17:09:46.995Z,38.90
2017-12-16T17:12:15.744Z,44.78
2017-12-16T17:14:43.330Z,34.22
2017-12-16T17:17:10.940Z,31.95
2017-12-16T17:19:37.608Z,29.48
2017-12-16T17:22:04.407Z,33.40
2017-12-16T17:24:31.198Z,39.85
2017-12-16T17:26:57.980Z,34.47
2017-12-16T17:29:25.367Z,40.83
2017-12-16T17:31:53.743Z,19.20
2017-12-16T17:34:21.030Z,25.17
2017-12-16T17:36:47.874Z,25.70
2017-12-16T17:39:16.618Z,18.05
2017-12-16T17:41:45.332Z,23.00
2017-12-16T17:44:12.727Z,24.50
2017-12-16T17:46:40.298Z,20.37
2017-12-16T17:49:07.647Z,25.88
2017-12-16T17:51:36.147Z,15.43
2017-12-16T17:54:03.081Z,25.50
2017-12-16T17:56:30.041Z,26.27
2017-12-16T17:58:57.318Z,20.05
2017-12-16T18:01:25.256Z,26.80
2017-12-16T18:03:52.012Z,11.75
2017-12-16T18:06:19.524Z,29.40
2017-12-16T18:08:46.927Z,17.60
2017-12-16T18:11:14.142Z,26.48
2017-12-16T18:13:44.297Z,17.25
2017-12-16T18:16:11.452Z,13.95
2017-12-16T18:18:38.795Z,27.23
2017-12-16T18:21:06.807Z,28.77
2017-12-16T18:23:34.546Z,16.70
2017-12-16T18:26:01.855Z,29.35
2017-12-16T18:28:29.204Z,29.80
2017-12-16T18:30:55.833Z,17.67
2017-12-16T18:33:22.952Z,20.33
2017-12-16T18:35:49.474Z,15.80
2017-12-16T18:38:17.367Z,22.55
2017-12-16T18:40:43.931Z,26.30
2017-12-16T18:43:10.427Z,26.87
2017-12-16T18:45:36.858Z,13.88
2017-12-16T18:48:04.296Z,18.92
2017-12-16T18:50:30.803Z,21.33
2017-12-16T18:52:57.225Z,31.33
2017-12-16T18:55:23.813Z,16.67
2017-12-16T18:57:51.689Z,24.25
2017-12-16T19:00:19.439Z,21.17
2017-12-16T19:02:46.188Z,24.80
2017-12-16T19:05:12.934Z,28.83
2017-12-16T19:07:40.380Z,22.92
2017-12-16T19:10:07.983Z,27.17
2017-12-16T19:12:35.747Z,18.42
2017-12-16T19:15:02.884Z,27.27
2017-12-16T19:17:29.626Z,21.50
2017-12-16T19:19:56.714Z,26.27
2017-12-16T19:22:23.824Z,31.33
2017-12-16T19:24:50.433Z,45.58
2017-12-16T19:27:19.138Z,22.17
2017-12-16T19:29:45.745Z,21.87
2017-12-16T19:32:13.929Z,29.37
2017-12-16T19:34:41.485Z,23.38
2017-12-16T19:37:11.302Z,18.77
2017-12-16T19:39:38.012Z,17.35
2017-12-16T19:42:04.667Z,18.48
2017-12-16T19:44:31.227Z,26.77
2017-12-16T19:46:58.290Z,25.08
2017-12-16T19:49:26.048Z,25.15
2017-12-16T19:51:54.040Z,29.73
2017-12-16T19:54:26.803Z,27.40
2017-12-16T19:56:54.471Z,11.75
2017-12-16T19:59:21.238Z,28.92
2017-12-16T20:01:48.428Z,26.92
2017-12-16T20:04:15.408Z,28.58
2017-12-16T20:06:42.340Z,21.02
2017-12-16T20:09:17.041Z,21.40
2017-12-16T20:11:44.075Z,21.65
2017-12-16T20:14:11.785Z,28.20
2017-12-16T20:16:38.827Z,29.63
2017-12-16T20:19:05.723Z,14.52
2017-12-16T20:21:33.229Z,16.30
2017-12-16T20:24:00.500Z,15.20
2017-12-16T20:26:27.451Z,23.48
2017-12-16T20:28:54.380Z,13.70
2017-12-16T20:31:21.084Z,14.98
2017-12-16T20:33:48.079Z,22.10
2017-12-16T20:36:14.900Z,18.42
2017-12-16T20:38:42.742Z,12.63
2017-12-16T20:41:09.612Z,36.30
2017-12-16T20:43:40.762Z,30.23
2017-12-16T20:46:07.996Z,24.42
2017-12-16T20:48:37.715Z,16.75
2017-12-16T20:54:05.780Z,19.92
2017-12-16T20:56:35.086Z,28.50
2017-12-16T20:59:02.824Z,28.70
2017-12-16T21:01:29.923Z,29.20
2017-12-16T21:03:58.145Z,22.05
2017-12-16T21:06:25.319Z,31.65
2017-12-16T21:08:52.810Z,30.17
2017-12-16T21:11:20.443Z,16.20
2017-12-16T21:13:47.906Z,29.37
2017-12-16T21:16:16.000Z,24.10
2017-12-16T21:18:46.064Z,23.25
2017-12-16T21:21:13.663Z,27.55
2017-12-16T21:23:41.302Z,29.65
2017-12-16T21:26:09.293Z,15.70
2017-12-16T21:28:37.037Z,24.80
2017-12-16T21:31:05.199Z,16.00
2017-12-16T21:33:33.223Z,27.45
2017-12-16T21:36:00.571Z,25.23
2017-12-16T21:38:27.749Z,28.12
2017-12-16T21:40:55.599Z,27.65
2017-12-16T21:43:22.517Z,28.33
2017-12-16T21:45:50.343Z,25.67
2017-12-16T21:48:17.231Z,29.00
2017-12-16T21:50:44.085Z,22.83
2017-12-16T21:53:12.386Z,23.60
2017-12-16T21:55:40.124Z,30.65
2017-12-16T21:58:06.714Z,29.00
2017-12-16T22:00:33.619Z,19.42
2017-12-16T22:03:01.187Z,20.55
2017-12-16T22:05:28.838Z,19.80
2017-12-16T22:07:55.981Z,14.82
2017-12-16T22:10:22.421Z,26.52
2017-12-16T22:12:49.504Z,34.40
2017-12-16T22:15:16.959Z,31.58
2017-12-16T22:17:43.802Z,25.70
2017-12-16T22:20:10.440Z,20.77
2017-12-16T22:22:37.523Z,26.35
2017-12-16T22:25:05.492Z,34.67
2017-12-16T22:27:33.543Z,21.67
2017-12-16T22:30:00.616Z,24.25
2017-12-16T22:32:28.076Z,32.78
2017-12-16T22:34:55.238Z,37.25
2017-12-16T22:37:22.726Z,20.85
2017-12-16T22:39:49.418Z,32.30
2017-12-16T22:42:16.119Z,23.98
2017-12-16T22:44:43.187Z,26.25
2017-12-16T22:47:10.074Z,30.73
2017-12-16T22:49:37.269Z,18.73
2017-12-16T22:52:03.915Z,17.77
2017-12-16T22:54:31.744Z,30.50
2017-12-16T22:56:59.304Z,36.10
2017-12-16T22:59:26.211Z,35.20
2017-12-16T23:01:52.893Z,23.33
2017-12-16T23:04:19.490Z,25.85
2017-12-16T23:06:46.986Z,26.75
2017-12-16T23:09:17.919Z,27.35
2017-12-16T23:11:45.187Z,31.90
2017-12-16T23:14:12.670Z,17.40
2017-12-16T23:16:40.346Z,28.15
2017-12-16T23:19:07.538Z,29.95
2017-12-16T23:21:34.728Z,32.40
2017-12-16T23:24:01.307Z,34.50
2017-12-16T23:26:28.642Z,22.80
2017-12-16T23:28:55.524Z,29.50
2017-12-16T23:31:22.349Z,26.90
2017-12-16T23:33:49.734Z,29.27
2017-12-16T23:36:17.037Z,27.85
2017-12-16T23:38:44.501Z,27.70
2017-12-16T23:41:11.323Z,31.50
2017-12-16T23:43:37.781Z,24.73
2017-12-16T23:46:04.977Z,26.10
2017-12-16T23:48:32.994Z,33.75
2017-12-16T23:50:59.963Z,28.27
2017-12-16T23:53:31.867Z,24.15
2017-12-16T23:55:59.817Z,28.25
2017-12-16T23:58:26.474Z,29.63
